»·PEaware :: PH-DFL KVNY-KSNA

PH-DFL :: KVNY-KSNA

FLIGHT INFORMATION

Flight Status: Arrived
Operator: Privately registered:
Netherlands
More flights under this callsign
Pilot: Jordy hubers (16165)
Aircraft: CESSNA 172 SKYHAWK
(C172)
More flights by this aircraft type
Origin: KVNY Van Nuys
United States
Destination: KSNA John Wayne-Orange Co
United States
More flights between these airports :: More routes between these airports
Route: +COAST
File this flight plan on PilotEdge
Remarks: cat 10
Altitude:
(Current/Filed)
2,500ft
Speed:
(Current/Filed)
110kts
Departed: 10-Aug-17 09:56 AM
Arrived: 10-Aug-17 10:37 AM
Distance/Time
Traveled:
44nm/0:41
Distance/Time
To Go:
Arrived

Flight Plot

Page will automatically refresh every two minutes.

Flight plan parsing failed; only flown route is shown


Map Options




Map Legend


Flown Route
Filed Route
Departure Airport
Arrival Airport
Navaid (VOR, NDB)
Fix

Horizontal Profiles

Position Reports

Time Latitude Longitude Heading Altitude Ground
Speed
10-Aug-17 09:46 34.210234 -118.491892 75 777ft 0kts
10-Aug-17 09:47 34.210234 -118.491892 75 777ft 0kts
10-Aug-17 09:48 34.210234 -118.491892 75 777ft 0kts
10-Aug-17 09:49 34.210234 -118.491892 75 777ft 0kts
10-Aug-17 09:50 34.210905 -118.491636 355 777ft 12kts
10-Aug-17 09:51 34.214725 -118.492023 355 777ft 13kts
10-Aug-17 09:52 34.217663 -118.492278 355 777ft 8kts
10-Aug-17 09:53 34.218842 -118.492176 70 777ft 0kts
10-Aug-17 09:54 34.218842 -118.492177 70 777ft 0kts
10-Aug-17 09:55 34.218842 -118.492177 70 777ft 0kts
10-Aug-17 09:56 34.218842 -118.492177 70 777ft 0kts
10-Aug-17 09:57 34.218842 -118.492177 70 777ft 0kts
10-Aug-17 09:58 34.218407 -118.491154 169 777ft 11kts
10-Aug-17 09:59 34.206271 -118.489878 175 1042ft 89kts
10-Aug-17 10:00 34.194581 -118.507659 263 1926ft 88kts
10-Aug-17 10:01 34.191950 -118.534956 263 2657ft 89kts
10-Aug-17 10:02 34.189102 -118.564628 263 3556ft 89kts
10-Aug-17 10:03 34.186304 -118.593871 263 4444ft 86kts
10-Aug-17 10:04 34.183659 -118.621714 263 5287ft 86kts
10-Aug-17 10:05 34.177712 -118.653193 215 5509ft 111kts
10-Aug-17 10:06 34.161040 -118.634519 92 5511ft 108kts
10-Aug-17 10:07 34.159293 -118.598158 92 5510ft 109kts
10-Aug-17 10:08 34.157774 -118.562109 105 5504ft 109kts
10-Aug-17 10:09 34.144737 -118.530284 144 5506ft 109kts
10-Aug-17 10:10 34.117363 -118.514960 155 5510ft 109kts
10-Aug-17 10:11 34.089949 -118.500308 156 5510ft 109kts
10-Aug-17 10:12 34.062264 -118.486028 156 5510ft 109kts
10-Aug-17 10:13 34.035440 -118.472391 156 5506ft 99kts
10-Aug-17 10:14 34.010793 -118.459756 156 5509ft 95kts
10-Aug-17 10:15 33.986818 -118.447244 156 5510ft 94kts
10-Aug-17 10:16 33.962960 -118.434530 155 5510ft 94kts
10-Aug-17 10:17 33.939160 -118.421374 154 5510ft 94kts
10-Aug-17 10:18 33.915895 -118.407398 143 5510ft 94kts
10-Aug-17 10:19 33.895428 -118.388783 141 5510ft 94kts
10-Aug-17 10:20 33.875217 -118.369315 140 5510ft 94kts
10-Aug-17 10:21 33.855335 -118.349787 140 5510ft 94kts
10-Aug-17 10:22 33.834696 -118.328363 138 5513ft 106kts
10-Aug-17 10:23 33.812921 -118.304907 137 5510ft 108kts
10-Aug-17 10:24 33.790507 -118.281205 138 5510ft 108kts
10-Aug-17 10:25 33.767931 -118.257493 138 5510ft 108kts
10-Aug-17 10:26 33.745582 -118.233752 140 5509ft 106kts
10-Aug-17 10:27 33.724338 -118.210224 134 5434ft 112kts
10-Aug-17 10:28 33.712751 -118.172274 102 4710ft 131kts
10-Aug-17 10:29 33.705759 -118.129875 94 3906ft 121kts
10-Aug-17 10:30 33.706849 -118.094654 80 3539ft 89kts
10-Aug-17 10:31 33.709729 -118.066194 83 3517ft 82kts
10-Aug-17 10:32 33.712250 -118.037512 83 3522ft 91kts
10-Aug-17 10:33 33.714932 -118.006998 83 3520ft 93kts
10-Aug-17 10:34 33.725030 -117.980221 43 3520ft 93kts
10-Aug-17 10:35 33.719506 -117.952898 138 2956ft 109kts
10-Aug-17 10:36 33.696468 -117.928554 139 2260ft 113kts
10-Aug-17 10:37 33.677611 -117.900746 110 1414ft 100kts
10-Aug-17 10:38 33.685081 -117.873172 33 644ft 89kts
10-Aug-17 10:39 33.683049 -117.864101 208 171ft 86kts
10-Aug-17 10:40 33.672260 -117.871508 259 49ft 13kts
10-Aug-17 10:41 33.672428 -117.872131 329 49ft 6kts
10-Aug-17 10:42 33.675070 -117.871538 208 49ft 0kts
10-Aug-17 10:43 33.675070 -117.871538 208 49ft 0kts
10-Aug-17 10:44 33.675070 -117.871538 208 49ft 0kts
10-Aug-17 10:45 33.675070 -117.871538 208 49ft 0kts
10-Aug-17 10:46 33.675070 -117.871538 208 49ft 0kts
10-Aug-17 10:47 33.675070 -117.871538 208 49ft 0kts
10-Aug-17 10:48 33.675070 -117.871538 208 49ft 0kts
10-Aug-17 10:49 33.675070 -117.871538 208 49ft 0kts
10-Aug-17 10:50 33.675070 -117.871538 208 49ft 0kts

Navigation Log

Ident Type
Flight plan parsing failed, navigation log unavailable